sensor_id;sensor_type;location;lat;lon;timestamp;temperature;humidity
11597;DHT22;5854;48.072;16.286;2024-01-15T00:00:47;-0.10;68.10
11597;DHT22;5854;48.072;16.286;2024-01-15T00:03:14;-0.10;67.00
11597;DHT22;5854;48.072;16.286;2024-01-15T00:05:43;-0.10;66.20
11597;DHT22;5854;48.072;16.286;2024-01-15T00:08:11;-0.10;68.40
11597;DHT22;5854;48.072;16.286;2024-01-15T00:10:38;-0.20;66.20
11597;DHT22;5854;48.072;16.286;2024-01-15T00:13:06;-0.10;69.00
11597;DHT22;5854;48.072;16.286;2024-01-15T00:15:33;-0.10;69.00
11597;DHT22;5854;48.072;16.286;2024-01-15T00:18:00;0.00;69.00
11597;DHT22;5854;48.072;16.286;2024-01-15T00:20:27;0.00;69.60
11597;DHT22;5854;48.072;16.286;2024-01-15T00:22:56;-0.10;68.50
11597;DHT22;5854;48.072;16.286;2024-01-15T00:25:23;0.00;69.50
11597;DHT22;5854;48.072;16.286;2024-01-15T00:27:50;-0.10;69.40
11597;DHT22;5854;48.072;16.286;2024-01-15T00:30:17;-0.10;69.70
11597;DHT22;5854;48.072;16.286;2024-01-15T00:32:45;-0.10;69.80
11597;DHT22;5854;48.072;16.286;2024-01-15T00:35:12;-0.20;67.60
11597;DHT22;5854;48.072;16.286;2024-01-15T00:37:40;-0.20;69.80
11597;DHT22;5854;48.072;16.286;2024-01-15T00:40:09;-0.20;68.20
11597;DHT22;5854;48.072;16.286;2024-01-15T00:42:37;-0.20;68.00
11597;DHT22;5854;48.072;16.286;2024-01-15T00:45:04;-0.20;68.10
11597;DHT22;5854;48.072;16.286;2024-01-15T00:47:33;-0.30;68.20
11597;DHT22;5854;48.072;16.286;2024-01-15T00:50:01;-0.20;70.40
11597;DHT22;5854;48.072;16.286;2024-01-15T00:52:28;-0.10;70.10
11597;DHT22;5854;48.072;16.286;2024-01-15T00:54:55;-0.20;69.10
11597;DHT22;5854;48.072;16.286;2024-01-15T00:57:24;-0.20;69.20
11597;DHT22;5854;48.072;16.286;2024-01-15T00:59:51;-0.20;69.10
11597;DHT22;5854;48.072;16.286;2024-01-15T01:02:18;-0.20;68.90
11597;DHT22;5854;48.072;16.286;2024-01-15T01:04:46;-0.20;69.50
11597;DHT22;5854;48.072;16.286;2024-01-15T01:07:13;-0.20;70.20
11597;DHT22;5854;48.072;16.286;2024-01-15T01:09:40;-0.20;69.80
11597;DHT22;5854;48.072;16.286;2024-01-15T01:12:07;-0.20;68.70
11597;DHT22;5854;48.072;16.286;2024-01-15T01:14:36;-0.20;69.00
11597;DHT22;5854;48.072;16.286;2024-01-15T01:17:03;-0.20;69.70
11597;DHT22;5854;48.072;16.286;2024-01-15T01:19:30;-0.20;70.20
11597;DHT22;5854;48.072;16.286;2024-01-15T01:21:57;-0.20;69.50
11597;DHT22;5854;48.072;16.286;2024-01-15T01:24:25;-0.20;69.70
11597;DHT22;5854;48.072;16.286;2024-01-15T01:26:52;-0.20;68.30
11597;DHT22;5854;48.072;16.286;2024-01-15T01:29:20;-0.20;69.70
11597;DHT22;5854;48.072;16.286;2024-01-15T01:31:49;-0.20;69.70
11597;DHT22;5854;48.072;16.286;2024-01-15T01:34:17;-0.20;69.60
11597;DHT22;5854;48.072;16.286;2024-01-15T01:36:44;-0.30;69.20
11597;DHT22;5854;48.072;16.286;2024-01-15T01:39:11;-0.30;68.50
11597;DHT22;5854;48.072;16.286;2024-01-15T01:41:39;-0.30;70.00
11597;DHT22;5854;48.072;16.286;2024-01-15T01:44:06;-0.20;70.00
11597;DHT22;5854;48.072;16.286;2024-01-15T01:46:34;-0.20;69.40
11597;DHT22;5854;48.072;16.286;2024-01-15T01:49:06;-0.20;69.50
11597;DHT22;5854;48.072;16.286;2024-01-15T01:51:35;-0.20;68.70
11597;DHT22;5854;48.072;16.286;2024-01-15T01:54:03;-0.20;68.70
11597;DHT22;5854;48.072;16.286;2024-01-15T01:56:31;-0.30;68.30
11597;DHT22;5854;48.072;16.286;2024-01-15T01:58:58;-0.30;69.10
11597;DHT22;5854;48.072;16.286;2024-01-15T02:01:26;-0.20;69.60
11597;DHT22;5854;48.072;16.286;2024-01-15T02:03:53;-0.20;69.80
11597;DHT22;5854;48.072;16.286;2024-01-15T02:06:23;-0.20;70.10
11597;DHT22;5854;48.072;16.286;2024-01-15T02:08:51;-0.30;68.50
11597;DHT22;5854;48.072;16.286;2024-01-15T02:11:18;-0.40;67.60
11597;DHT22;5854;48.072;16.286;2024-01-15T02:13:45;-0.50;66.90
11597;DHT22;5854;48.072;16.286;2024-01-15T02:16:13;-0.40;64.60
11597;DHT22;5854;48.072;16.286;2024-01-15T02:18:40;-0.40;66.00
11597;DHT22;5854;48.072;16.286;2024-01-15T02:21:08;-0.40;68.60
11597;DHT22;5854;48.072;16.286;2024-01-15T02:23:37;-0.40;63.50
11597;DHT22;5854;48.072;16.286;2024-01-15T02:26:05;-0.40;63.30
11597;DHT22;5854;48.072;16.286;2024-01-15T02:28:33;-0.50;63.00
11597;DHT22;5854;48.072;16.286;2024-01-15T02:31:00;-0.40;64.60
11597;DHT22;5854;48.072;16.286;2024-01-15T02:33:28;-0.30;62.00
11597;DHT22;5854;48.072;16.286;2024-01-15T02:35:55;-0.30;60.10
11597;DHT22;5854;48.072;16.286;2024-01-15T02:38:22;-0.30;60.60
11597;DHT22;5854;48.072;16.286;2024-01-15T02:40:50;-0.30;59.50
11597;DHT22;5854;48.072;16.286;2024-01-15T02:43:18;-0.20;59.40
11597;DHT22;5854;48.072;16.286;2024-01-15T02:45:45;-0.20;61.90
11597;DHT22;5854;48.072;16.286;2024-01-15T02:48:12;-0.20;60.30
11597;DHT22;5854;48.072;16.286;2024-01-15T02:50:40;-0.20;60.30
11597;DHT22;5854;48.072;16.286;2024-01-15T02:53:07;-0.20;59.50
11597;DHT22;5854;48.072;16.286;2024-01-15T02:55:34;-0.20;63.00
11597;DHT22;5854;48.072;16.286;2024-01-15T02:58:03;-0.30;59.90
11597;DHT22;5854;48.072;16.286;2024-01-15T03:00:30;-0.30;61.90
11597;DHT22;5854;48.072;16.286;2024-01-15T03:02:58;-0.40;65.00
11597;DHT22;5854;48.072;16.286;2024-01-15T03:05:25;-0.30;65.80
11597;DHT22;5854;48.072;16.286;2024-01-15T03:07:51;-0.30;65.40
11597;DHT22;5854;48.072;16.286;2024-01-15T03:10:18;-0.30;63.80
11597;DHT22;5854;48.072;16.286;2024-01-15T03:12:45;-0.30;65.80
11597;DHT22;5854;48.072;16.286;2024-01-15T03:15:14;-0.30;61.50
11597;DHT22;5854;48.072;16.286;2024-01-15T03:17:41;-0.50;65.20
11597;DHT22;5854;48.072;16.286;2024-01-15T03:20:10;-0.40;65.20
11597;DHT22;5854;48.072;16.286;2024-01-15T03:22:37;-0.20;62.20
11597;DHT22;5854;48.072;16.286;2024-01-15T03:25:07;-0.20;61.30
11597;DHT22;5854;48.072;16.286;2024-01-15T03:27:34;-0.30;63.60
11597;DHT22;5854;48.072;16.286;2024-01-15T03:30:00;-0.20;62.60
11597;DHT22;5854;48.072;16.286;2024-01-15T03:32:30;-0.10;63.60
11597;DHT22;5854;48.072;16.286;2024-01-15T03:34:57;-0.20;62.20
11597;DHT22;5854;48.072;16.286;2024-01-15T03:37:24;-0.10;63.70
11597;DHT22;5854;48.072;16.286;2024-01-15T03:39:51;-0.10;61.60
11597;DHT22;5854;48.072;16.286;2024-01-15T03:42:18;-0.10;61.90
11597;DHT22;5854;48.072;16.286;2024-01-15T03:44:46;-0.10;61.20
11597;DHT22;5854;48.072;16.286;2024-01-15T03:47:13;-0.10;63.00
11597;DHT22;5854;48.072;16.286;2024-01-15T03:49:41;0.00;60.20
11597;DHT22;5854;48.072;16.286;2024-01-15T03:52:08;0.10;58.80
11597;DHT22;5854;48.072;16.286;2024-01-15T03:54:36;0.10;60.00
11597;DHT22;5854;48.072;16.286;2024-01-15T03:57:03;0.10;61.50
11597;DHT22;5854;48.072;16.286;2024-01-15T03:59:31;0.00;60.10
11597;DHT22;5854;48.072;16.286;2024-01-15T04:01:58;0.00;58.80
11597;DHT22;5854;48.072;16.286;2024-01-15T04:04:25;0.10;60.70
11597;DHT22;5854;48.072;16.286;2024-01-15T04:06:54;0.00;62.10
11597;DHT22;5854;48.072;16.286;2024-01-15T04:09:21;0.10;61.30
11597;DHT22;5854;48.072;16.286;2024-01-15T04:11:48;0.10;63.60
11597;DHT22;5854;48.072;16.286;2024-01-15T04:14:15;0.10;59.30
11597;DHT22;5854;48.072;16.286;2024-01-15T04:16:43;0.10;59.70
11597;DHT22;5854;48.072;16.286;2024-01-15T04:19:10;0.20;60.80
11597;DHT22;5854;48.072;16.286;2024-01-15T04:21:37;0.30;63.10
11597;DHT22;5854;48.072;16.286;2024-01-15T04:24:06;0.30;59.90
11597;DHT22;5854;48.072;16.286;2024-01-15T04:26:33;0.60;59.40
11597;DHT22;5854;48.072;16.286;2024-01-15T04:29:00;0.50;59.60
11597;DHT22;5854;48.072;16.286;2024-01-15T04:31:28;0.50;61.60
11597;DHT22;5854;48.072;16.286;2024-01-15T04:33:55;0.40;61.00
11597;DHT22;5854;48.072;16.286;2024-01-15T04:36:22;0.40;62.90
11597;DHT22;5854;48.072;16.286;2024-01-15T04:38:49;0.50;57.50
11597;DHT22;5854;48.072;16.286;2024-01-15T04:41:18;0.60;59.20
11597;DHT22;5854;48.072;16.286;2024-01-15T04:43:45;0.60;60.20
11597;DHT22;5854;48.072;16.286;2024-01-15T04:46:13;0.60;57.10
11597;DHT22;5854;48.072;16.286;2024-01-15T04:48:40;0.60;58.80
11597;DHT22;5854;48.072;16.286;2024-01-15T04:51:09;0.60;62.00
11597;DHT22;5854;48.072;16.286;2024-01-15T04:53:36;0.60;56.60
11597;DHT22;5854;48.072;16.286;2024-01-15T04:56:03;0.60;58.90
11597;DHT22;5854;48.072;16.286;2024-01-15T04:58:32;0.60;58.40
11597;DHT22;5854;48.072;16.286;2024-01-15T05:00:59;0.40;59.10
11597;DHT22;5854;48.072;16.286;2024-01-15T05:03:27;0.40;61.40
11597;DHT22;5854;48.072;16.286;2024-01-15T05:05:54;0.40;61.20
11597;DHT22;5854;48.072;16.286;2024-01-15T05:08:21;0.40;63.20
11597;DHT22;5854;48.072;16.286;2024-01-15T05:10:48;0.30;62.10
11597;DHT22;5854;48.072;16.286;2024-01-15T05:13:15;0.30;61.50
11597;DHT22;5854;48.072;16.286;2024-01-15T05:15:44;0.30;63.70
11597;DHT22;5854;48.072;16.286;2024-01-15T05:18:11;0.20;64.10
11597;DHT22;5854;48.072;16.286;2024-01-15T05:20:40;0.30;61.40
11597;DHT22;5854;48.072;16.286;2024-01-15T05:23:07;0.40;61.70
11597;DHT22;5854;48.072;16.286;2024-01-15T05:25:35;0.30;63.60
11597;DHT22;5854;48.072;16.286;2024-01-15T05:28:02;0.30;63.80
11597;DHT22;5854;48.072;16.286;2024-01-15T05:30:29;0.30;61.10
11597;DHT22;5854;48.072;16.286;2024-01-15T05:32:58;0.20;64.30
11597;DHT22;5854;48.072;16.286;2024-01-15T05:35:25;0.20;63.00
11597;DHT22;5854;48.072;16.286;2024-01-15T05:37:53;0.20;62.60
11597;DHT22;5854;48.072;16.286;2024-01-15T05:40:20;0.20;63.60
11597;DHT22;5854;48.072;16.286;2024-01-15T05:42:47;0.20;62.40
11597;DHT22;5854;48.072;16.286;2024-01-15T05:45:14;0.20;63.90
11597;DHT22;5854;48.072;16.286;2024-01-15T05:47:41;0.20;63.10
11597;DHT22;5854;48.072;16.286;2024-01-15T05:50:11;0.20;64.50
11597;DHT22;5854;48.072;16.286;2024-01-15T05:52:38;0.20;64.40
11597;DHT22;5854;48.072;16.286;2024-01-15T05:55:05;0.10;61.30
11597;DHT22;5854;48.072;16.286;2024-01-15T05:57:33;0.20;62.10
11597;DHT22;5854;48.072;16.286;2024-01-15T06:00:00;0.10;63.00
11597;DHT22;5854;48.072;16.286;2024-01-15T06:02:28;0.10;61.20
11597;DHT22;5854;48.072;16.286;2024-01-15T06:04:55;0.10;64.10
11597;DHT22;5854;48.072;16.286;2024-01-15T06:07:24;0.00;65.40
11597;DHT22;5854;48.072;16.286;2024-01-15T06:09:51;0.00;65.20
11597;DHT22;5854;48.072;16.286;2024-01-15T06:12:18;0.00;65.80
11597;DHT22;5854;48.072;16.286;2024-01-15T06:14:46;0.00;64.20
11597;DHT22;5854;48.072;16.286;2024-01-15T06:17:13;0.00;65.60
11597;DHT22;5854;48.072;16.286;2024-01-15T06:19:40;0.00;64.00
11597;DHT22;5854;48.072;16.286;2024-01-15T06:22:07;0.00;64.30
11597;DHT22;5854;48.072;16.286;2024-01-15T06:24:36;0.00;66.30
11597;DHT22;5854;48.072;16.286;2024-01-15T06:27:04;-0.10;63.60
11597;DHT22;5854;48.072;16.286;2024-01-15T06:29:32;-0.10;62.90
11597;DHT22;5854;48.072;16.286;2024-01-15T06:32:00;0.00;64.40
11597;DHT22;5854;48.072;16.286;2024-01-15T06:34:27;0.00;63.40
11597;DHT22;5854;48.072;16.286;2024-01-15T06:36:54;0.00;68.10
11597;DHT22;5854;48.072;16.286;2024-01-15T06:39:21;0.10;64.60
11597;DHT22;5854;48.072;16.286;2024-01-15T06:41:50;-0.10;64.70
11597;DHT22;5854;48.072;16.286;2024-01-15T06:44:17;-0.10;62.40
11597;DHT22;5854;48.072;16.286;2024-01-15T06:46:47;0.00;64.60
11597;DHT22;5854;48.072;16.286;2024-01-15T06:49:14;0.00;62.30
11597;DHT22;5854;48.072;16.286;2024-01-15T06:51:42;0.00;61.30
11597;DHT22;5854;48.072;16.286;2024-01-15T06:54:12;0.00;63.10
11597;DHT22;5854;48.072;16.286;2024-01-15T06:56:40;0.00;64.90
11597;DHT22;5854;48.072;16.286;2024-01-15T06:59:09;0.00;65.90
11597;DHT22;5854;48.072;16.286;2024-01-15T07:01:36;-0.10;65.00
11597;DHT22;5854;48.072;16.286;2024-01-15T07:04:03;-0.10;64.00
11597;DHT22;5854;48.072;16.286;2024-01-15T07:06:31;-0.10;67.00
11597;DHT22;5854;48.072;16.286;2024-01-15T07:08:58;-0.10;65.60
11597;DHT22;5854;48.072;16.286;2024-01-15T07:11:25;-0.10;63.20
11597;DHT22;5854;48.072;16.286;2024-01-15T07:13:52;0.00;64.90
11597;DHT22;5854;48.072;16.286;2024-01-15T07:16:21;0.00;64.30
11597;DHT22;5854;48.072;16.286;2024-01-15T07:18:48;0.00;64.70
11597;DHT22;5854;48.072;16.286;2024-01-15T07:21:15;0.00;65.80
11597;DHT22;5854;48.072;16.286;2024-01-15T07:23:42;0.00;65.40
11597;DHT22;5854;48.072;16.286;2024-01-15T07:26:10;0.00;63.50
11597;DHT22;5854;48.072;16.286;2024-01-15T07:28:37;0.10;62.60
11597;DHT22;5854;48.072;16.286;2024-01-15T07:31:04;0.20;63.20
11597;DHT22;5854;48.072;16.286;2024-01-15T07:33:33;0.40;61.10
11597;DHT22;5854;48.072;16.286;2024-01-15T07:36:01;0.50;62.80
11597;DHT22;5854;48.072;16.286;2024-01-15T07:38:28;0.50;58.90
11597;DHT22;5854;48.072;16.286;2024-01-15T07:40:55;0.60;58.70
11597;DHT22;5854;48.072;16.286;2024-01-15T07:43:23;0.60;59.80
11597;DHT22;5854;48.072;16.286;2024-01-15T07:45:50;0.70;60.30
11597;DHT22;5854;48.072;16.286;2024-01-15T07:48:17;0.70;58.30
11597;DHT22;5854;48.072;16.286;2024-01-15T07:50:47;0.80;57.00
11597;DHT22;5854;48.072;16.286;2024-01-15T07:53:14;0.80;61.70
11597;DHT22;5854;48.072;16.286;2024-01-15T07:55:42;0.90;60.90
11597;DHT22;5854;48.072;16.286;2024-01-15T07:58:11;1.00;59.30
11597;DHT22;5854;48.072;16.286;2024-01-15T08:00:38;1.00;57.90
11597;DHT22;5854;48.072;16.286;2024-01-15T08:03:05;1.00;58.70
11597;DHT22;5854;48.072;16.286;2024-01-15T08:05:33;1.00;57.20
11597;DHT22;5854;48.072;16.286;2024-01-15T08:08:01;1.10;61.10
11597;DHT22;5854;48.072;16.286;2024-01-15T08:10:29;1.10;57.40
11597;DHT22;5854;48.072;16.286;2024-01-15T08:12:56;1.10;57.00
11597;DHT22;5854;48.072;16.286;2024-01-15T08:15:23;1.10;56.80
11597;DHT22;5854;48.072;16.286;2024-01-15T08:17:50;1.20;56.50
11597;DHT22;5854;48.072;16.286;2024-01-15T08:20:17;1.20;59.50
11597;DHT22;5854;48.072;16.286;2024-01-15T08:22:45;1.20;59.00
11597;DHT22;5854;48.072;16.286;2024-01-15T08:25:15;1.20;56.10
11597;DHT22;5854;48.072;16.286;2024-01-15T08:27:42;1.20;57.80
11597;DHT22;5854;48.072;16.286;2024-01-15T08:30:10;1.20;58.40
11597;DHT22;5854;48.072;16.286;2024-01-15T08:32:38;1.30;59.60
11597;DHT22;5854;48.072;16.286;2024-01-15T08:35:07;1.30;58.70
11597;DHT22;5854;48.072;16.286;2024-01-15T08:37:35;1.30;59.30
11597;DHT22;5854;48.072;16.286;2024-01-15T08:40:02;1.20;55.10
11597;DHT22;5854;48.072;16.286;2024-01-15T08:42:31;1.30;57.50
11597;DHT22;5854;48.072;16.286;2024-01-15T08:44:58;1.30;54.80
11597;DHT22;5854;48.072;16.286;2024-01-15T08:47:27;1.30;58.00
11597;DHT22;5854;48.072;16.286;2024-01-15T08:49:54;1.30;58.30
11597;DHT22;5854;48.072;16.286;2024-01-15T08:52:21;1.40;57.70
11597;DHT22;5854;48.072;16.286;2024-01-15T08:54:49;1.40;54.70
11597;DHT22;5854;48.072;16.286;2024-01-15T08:57:16;1.40;60.00
11597;DHT22;5854;48.072;16.286;2024-01-15T08:59:45;1.50;58.30
11597;DHT22;5854;48.072;16.286;2024-01-15T09:02:12;1.50;60.20
11597;DHT22;5854;48.072;16.286;2024-01-15T09:04:39;1.70;58.00
11597;DHT22;5854;48.072;16.286;2024-01-15T09:07:07;1.70;57.90
11597;DHT22;5854;48.072;16.286;2024-01-15T09:09:34;1.80;53.10
11597;DHT22;5854;48.072;16.286;2024-01-15T09:12:02;1.70;57.00
11597;DHT22;5854;48.072;16.286;2024-01-15T09:14:29;1.70;53.40
11597;DHT22;5854;48.072;16.286;2024-01-15T09:16:58;1.70;57.60
11597;DHT22;5854;48.072;16.286;2024-01-15T09:19:25;1.70;58.50
11597;DHT22;5854;48.072;16.286;2024-01-15T09:21:52;1.60;57.40
11597;DHT22;5854;48.072;16.286;2024-01-15T09:24:20;1.60;56.00
11597;DHT22;5854;48.072;16.286;2024-01-15T09:26:47;1.50;58.20
11597;DHT22;5854;48.072;16.286;2024-01-15T09:29:14;1.60;55.50
11597;DHT22;5854;48.072;16.286;2024-01-15T09:31:42;1.50;59.00
11597;DHT22;5854;48.072;16.286;2024-01-15T09:34:10;1.50;59.10
11597;DHT22;5854;48.072;16.286;2024-01-15T09:36:39;1.60;57.20
11597;DHT22;5854;48.072;16.286;2024-01-15T09:39:08;1.60;53.60
11597;DHT22;5854;48.072;16.286;2024-01-15T09:41:36;1.50;59.10
11597;DHT22;5854;48.072;16.286;2024-01-15T09:44:04;1.40;54.50
11597;DHT22;5854;48.072;16.286;2024-01-15T09:46:33;1.50;58.40
11597;DHT22;5854;48.072;16.286;2024-01-15T09:49:00;1.50;57.40
11597;DHT22;5854;48.072;16.286;2024-01-15T09:51:31;1.50;55.10
11597;DHT22;5854;48.072;16.286;2024-01-15T09:53:59;1.60;56.00
11597;DHT22;5854;48.072;16.286;2024-01-15T09:56:26;1.50;55.70
11597;DHT22;5854;48.072;16.286;2024-01-15T09:58:54;1.60;58.00
11597;DHT22;5854;48.072;16.286;2024-01-15T10:01:23;1.60;55.80
11597;DHT22;5854;48.072;16.286;2024-01-15T10:03:50;1.60;59.70
11597;DHT22;5854;48.072;16.286;2024-01-15T10:06:19;1.60;57.60
11597;DHT22;5854;48.072;16.286;2024-01-15T10:08:50;1.60;57.70
11597;DHT22;5854;48.072;16.286;2024-01-15T10:11:17;1.60;60.00
11597;DHT22;5854;48.072;16.286;2024-01-15T10:13:45;1.60;56.70
11597;DHT22;5854;48.072;16.286;2024-01-15T10:16:16;1.70;57.90
11597;DHT22;5854;48.072;16.286;2024-01-15T10:18:43;1.60;60.20
11597;DHT22;5854;48.072;16.286;2024-01-15T10:21:11;1.60;59.30
11597;DHT22;5854;48.072;16.286;2024-01-15T10:23:38;1.80;61.00
11597;DHT22;5854;48.072;16.286;2024-01-15T10:26:07;2.00;58.50
11597;DHT22;5854;48.072;16.286;2024-01-15T10:28:34;1.90;59.60
11597;DHT22;5854;48.072;16.286;2024-01-15T10:31:02;1.80;54.80
11597;DHT22;5854;48.072;16.286;2024-01-15T10:33:30;1.80;57.60
11597;DHT22;5854;48.072;16.286;2024-01-15T10:36:00;1.70;56.60
11597;DHT22;5854;48.072;16.286;2024-01-15T10:38:27;1.70;55.60
11597;DHT22;5854;48.072;16.286;2024-01-15T10:40:55;1.80;56.60
11597;DHT22;5854;48.072;16.286;2024-01-15T10:43:25;1.80;56.40
11597;DHT22;5854;48.072;16.286;2024-01-15T10:45:52;1.80;59.60
11597;DHT22;5854;48.072;16.286;2024-01-15T10:48:20;1.80;56.70
11597;DHT22;5854;48.072;16.286;2024-01-15T10:50:48;1.90;57.80
11597;DHT22;5854;48.072;16.286;2024-01-15T10:53:17;1.80;56.20
11597;DHT22;5854;48.072;16.286;2024-01-15T10:55:46;1.80;55.60
11597;DHT22;5854;48.072;16.286;2024-01-15T10:58:15;1.80;57.60
11597;DHT22;5854;48.072;16.286;2024-01-15T11:00:44;1.80;59.80
11597;DHT22;5854;48.072;16.286;2024-01-15T11:03:12;1.70;59.40
11597;DHT22;5854;48.072;16.286;2024-01-15T11:05:42;1.80;56.70
11597;DHT22;5854;48.072;16.286;2024-01-15T11:08:10;1.80;54.70
11597;DHT22;5854;48.072;16.286;2024-01-15T11:10:42;1.90;56.30
11597;DHT22;5854;48.072;16.286;2024-01-15T11:13:20;1.80;60.30
11597;DHT22;5854;48.072;16.286;2024-01-15T11:16:00;1.90;59.00
11597;DHT22;5854;48.072;16.286;2024-01-15T11:18:29;1.90;56.40
11597;DHT22;5854;48.072;16.286;2024-01-15T11:21:22;1.80;57.20
11597;DHT22;5854;48.072;16.286;2024-01-15T11:23:54;1.80;59.00
11597;DHT22;5854;48.072;16.286;2024-01-15T11:26:34;1.90;58.40
11597;DHT22;5854;48.072;16.286;2024-01-15T11:29:03;2.00;56.70
11597;DHT22;5854;48.072;16.286;2024-01-15T11:31:59;2.00;58.20
11597;DHT22;5854;48.072;16.286;2024-01-15T11:34:49;1.90;60.80
11597;DHT22;5854;48.072;16.286;2024-01-15T11:37:18;1.60;61.80
11597;DHT22;5854;48.072;16.286;2024-01-15T11:39:46;1.60;61.90
11597;DHT22;5854;48.072;16.286;2024-01-15T11:42:14;1.70;59.20
11597;DHT22;5854;48.072;16.286;2024-01-15T11:44:41;1.80;58.60
11597;DHT22;5854;48.072;16.286;2024-01-15T11:47:12;1.70;60.80
11597;DHT22;5854;48.072;16.286;2024-01-15T11:49:58;1.70;60.00
11597;DHT22;5854;48.072;16.286;2024-01-15T11:52:29;1.70;60.10
11597;DHT22;5854;48.072;16.286;2024-01-15T11:55:03;1.80;60.90
11597;DHT22;5854;48.072;16.286;2024-01-15T11:57:42;1.90;59.80
11597;DHT22;5854;48.072;16.286;2024-01-15T12:00:13;1.90;61.40
11597;DHT22;5854;48.072;16.286;2024-01-15T12:02:44;2.30;65.90
11597;DHT22;5854;48.072;16.286;2024-01-15T12:05:13;2.20;60.00
11597;DHT22;5854;48.072;16.286;2024-01-15T12:07:41;2.00;60.70
11597;DHT22;5854;48.072;16.286;2024-01-15T12:10:10;1.90;58.80
11597;DHT22;5854;48.072;16.286;2024-01-15T12:12:57;2.00;62.00
11597;DHT22;5854;48.072;16.286;2024-01-15T12:15:27;1.90;61.00
11597;DHT22;5854;48.072;16.286;2024-01-15T12:17:57;1.90;61.30
11597;DHT22;5854;48.072;16.286;2024-01-15T12:20:26;1.80;59.90
11597;DHT22;5854;48.072;16.286;2024-01-15T12:22:53;1.80;61.90
11597;DHT22;5854;48.072;16.286;2024-01-15T12:25:21;1.80;59.90
11597;DHT22;5854;48.072;16.286;2024-01-15T12:27:49;1.80;60.50
11597;DHT22;5854;48.072;16.286;2024-01-15T12:30:18;1.80;62.40
11597;DHT22;5854;48.072;16.286;2024-01-15T12:32:45;1.60;63.60
11597;DHT22;5854;48.072;16.286;2024-01-15T12:35:15;1.70;58.70
11597;DHT22;5854;48.072;16.286;2024-01-15T12:37:43;1.80;60.90
11597;DHT22;5854;48.072;16.286;2024-01-15T12:40:12;1.90;60.60
11597;DHT22;5854;48.072;16.286;2024-01-15T12:42:40;1.80;58.40
11597;DHT22;5854;48.072;16.286;2024-01-15T12:45:09;1.90;62.80
11597;DHT22;5854;48.072;16.286;2024-01-15T12:47:38;1.90;60.20
11597;DHT22;5854;48.072;16.286;2024-01-15T12:50:06;1.90;59.20
11597;DHT22;5854;48.072;16.286;2024-01-15T12:52:36;1.90;57.60
11597;DHT22;5854;48.072;16.286;2024-01-15T12:55:05;2.00;57.10
11597;DHT22;5854;48.072;16.286;2024-01-15T12:57:33;2.00;54.80
11597;DHT22;5854;48.072;16.286;2024-01-15T13:00:01;2.10;55.20
11597;DHT22;5854;48.072;16.286;2024-01-15T13:02:32;2.20;56.90
11597;DHT22;5854;48.072;16.286;2024-01-15T13:04:59;2.20;59.20
11597;DHT22;5854;48.072;16.286;2024-01-15T13:07:27;2.20;55.80
11597;DHT22;5854;48.072;16.286;2024-01-15T13:09:55;2.20;54.00
11597;DHT22;5854;48.072;16.286;2024-01-15T13:12:23;2.30;54.10
11597;DHT22;5854;48.072;16.286;2024-01-15T13:14:50;2.20;53.70
11597;DHT22;5854;48.072;16.286;2024-01-15T13:17:17;2.20;55.90
11597;DHT22;5854;48.072;16.286;2024-01-15T13:19:46;2.20;54.10
11597;DHT22;5854;48.072;16.286;2024-01-15T13:22:14;2.20;60.30
11597;DHT22;5854;48.072;16.286;2024-01-15T13:24:41;2.20;54.50
11597;DHT22;5854;48.072;16.286;2024-01-15T13:27:10;2.10;58.50
11597;DHT22;5854;48.072;16.286;2024-01-15T13:29:39;2.10;55.30
11597;DHT22;5854;48.072;16.286;2024-01-15T13:32:06;2.20;59.40
11597;DHT22;5854;48.072;16.286;2024-01-15T13:34:35;2.10;56.60
11597;DHT22;5854;48.072;16.286;2024-01-15T13:37:03;2.10;57.90
11597;DHT22;5854;48.072;16.286;2024-01-15T13:39:30;2.10;61.00
11597;DHT22;5854;48.072;16.286;2024-01-15T13:41:59;2.10;61.80
11597;DHT22;5854;48.072;16.286;2024-01-15T13:44:28;2.10;56.90
11597;DHT22;5854;48.072;16.286;2024-01-15T13:46:55;2.10;57.80
11597;DHT22;5854;48.072;16.286;2024-01-15T13:49:22;2.30;58.20
11597;DHT22;5854;48.072;16.286;2024-01-15T13:51:50;2.20;54.10
11597;DHT22;5854;48.072;16.286;2024-01-15T13:54:17;2.20;57.50
11597;DHT22;5854;48.072;16.286;2024-01-15T13:56:46;2.10;57.30
11597;DHT22;5854;48.072;16.286;2024-01-15T13:59:14;2.10;59.90
11597;DHT22;5854;48.072;16.286;2024-01-15T14:01:46;1.90;59.10
11597;DHT22;5854;48.072;16.286;2024-01-15T14:04:15;1.90;60.50
11597;DHT22;5854;48.072;16.286;2024-01-15T14:06:42;1.90;55.40
11597;DHT22;5854;48.072;16.286;2024-01-15T14:09:11;2.00;56.30
11597;DHT22;5854;48.072;16.286;2024-01-15T14:11:40;2.10;56.10
11597;DHT22;5854;48.072;16.286;2024-01-15T14:14:07;2.10;58.70
11597;DHT22;5854;48.072;16.286;2024-01-15T14:16:38;2.10;58.90
11597;DHT22;5854;48.072;16.286;2024-01-15T14:19:07;2.00;56.50
11597;DHT22;5854;48.072;16.286;2024-01-15T14:21:35;1.80;62.80
11597;DHT22;5854;48.072;16.286;2024-01-15T14:24:02;1.80;56.50
11597;DHT22;5854;48.072;16.286;2024-01-15T14:26:30;1.90;56.10
11597;DHT22;5854;48.072;16.286;2024-01-15T14:28:57;1.90;59.00
11597;DHT22;5854;48.072;16.286;2024-01-15T14:31:24;1.90;56.00
11597;DHT22;5854;48.072;16.286;2024-01-15T14:33:54;1.90;57.20
11597;DHT22;5854;48.072;16.286;2024-01-15T14:36:23;1.80;55.60
11597;DHT22;5854;48.072;16.286;2024-01-15T14:38:50;1.80;56.60
11597;DHT22;5854;48.072;16.286;2024-01-15T14:41:17;1.80;61.30
11597;DHT22;5854;48.072;16.286;2024-01-15T14:43:44;1.80;59.50
11597;DHT22;5854;48.072;16.286;2024-01-15T14:46:12;1.70;57.00
11597;DHT22;5854;48.072;16.286;2024-01-15T14:48:39;1.70;53.20
11597;DHT22;5854;48.072;16.286;2024-01-15T14:51:06;1.70;60.40
11597;DHT22;5854;48.072;16.286;2024-01-15T14:53:35;1.70;62.80
11597;DHT22;5854;48.072;16.286;2024-01-15T14:56:02;1.70;58.70
11597;DHT22;5854;48.072;16.286;2024-01-15T14:58:29;1.70;57.10
11597;DHT22;5854;48.072;16.286;2024-01-15T15:00:57;1.70;59.60
11597;DHT22;5854;48.072;16.286;2024-01-15T15:03:25;1.70;60.50
11597;DHT22;5854;48.072;16.286;2024-01-15T15:05:52;1.70;59.90
11597;DHT22;5854;48.072;16.286;2024-01-15T15:08:19;1.60;52.20
11597;DHT22;5854;48.072;16.286;2024-01-15T15:10:48;1.60;54.60
11597;DHT22;5854;48.072;16.286;2024-01-15T15:13:15;1.70;53.30
11597;DHT22;5854;48.072;16.286;2024-01-15T15:15:42;1.70;56.20
11597;DHT22;5854;48.072;16.286;2024-01-15T15:18:10;1.60;60.30
11597;DHT22;5854;48.072;16.286;2024-01-15T15:20:37;1.60;58.50
11597;DHT22;5854;48.072;16.286;2024-01-15T15:23:04;1.60;59.50
11597;DHT22;5854;48.072;16.286;2024-01-15T15:25:34;1.60;57.00
11597;DHT22;5854;48.072;16.286;2024-01-15T15:28:03;1.60;60.20
11597;DHT22;5854;48.072;16.286;2024-01-15T15:30:31;1.60;60.10
11597;DHT22;5854;48.072;16.286;2024-01-15T15:32:58;1.60;55.70
11597;DHT22;5854;48.072;16.286;2024-01-15T15:35:26;1.60;59.70
11597;DHT22;5854;48.072;16.286;2024-01-15T15:37:53;1.60;60.80
11597;DHT22;5854;48.072;16.286;2024-01-15T15:40:20;1.60;63.60
11597;DHT22;5854;48.072;16.286;2024-01-15T15:42:48;1.60;61.40
11597;DHT22;5854;48.072;16.286;2024-01-15T15:45:16;1.50;57.90
11597;DHT22;5854;48.072;16.286;2024-01-15T15:47:44;1.60;61.60